Time;durP1;ratioP1;P1;durP2;ratioP2;P2;SDS_P1;SDS_P2;PMS_P1;PMS_P2;Temp;Humidity;BMP_temperature;BMP_pressure;BME280_temperature;BME280_humidity;BME280_pressure;Samples;Min_cycle;Max_cycle;Signal;HPM_P1;HPM_P2
2023/05/23 00:01:46;;;;;;;10.73;9.02;;;16.90;99.90;;;;;;6242096;23;20068;-71
2023/05/23 00:04:17;;;;;;;12.48;9.18;;;17.00;99.90;;;;;;6214574;23;20015;-71
2023/05/23 00:06:49;;;;;;;11.07;9.98;;;16.90;99.90;;;;;;6242070;23;20026;-71
2023/05/23 00:09:15;;;;;;;10.60;9.55;;;16.90;99.90;;;;;;6241842;23;20004;-71
2023/05/23 00:11:44;;;;;;;12.73;9.35;;;16.90;99.90;;;;;;6241784;23;20036;-71
2023/05/23 00:14:12;;;;;;;11.98;8.90;;;16.80;99.90;;;;;;6241053;23;20418;-72
2023/05/23 00:16:40;;;;;;;11.73;10.52;;;16.80;99.90;;;;;;6241868;23;19996;-72
2023/05/23 00:19:05;;;;;;;13.90;9.63;;;16.80;99.90;;;;;;6241857;23;20279;-71
2023/05/23 00:21:32;;;;;;;12.32;10.75;;;16.80;99.90;;;;;;6241199;23;20072;-71
2023/05/23 00:23:58;;;;;;;15.00;10.52;;;16.80;99.90;;;;;;6241457;23;20014;-71
2023/05/23 00:26:24;;;;;;;13.27;9.73;;;16.70;99.90;;;;;;6240855;23;20083;-72
2023/05/23 00:28:49;;;;;;;13.85;10.85;;;16.70;99.90;;;;;;6241139;23;20027;-71
2023/05/23 00:31:15;;;;;;;13.38;9.30;;;16.70;99.90;;;;;;6241403;23;20008;-71
2023/05/23 00:33:40;;;;;;;14.13;9.88;;;16.70;99.90;;;;;;6241641;23;20023;-72
2023/05/23 00:36:06;;;;;;;12.57;10.52;;;16.70;99.90;;;;;;6241694;23;20370;-72
2023/05/23 00:38:31;;;;;;;17.15;10.52;;;16.60;99.90;;;;;;6241516;23;20351;-71
2023/05/23 00:40:57;;;;;;;15.57;10.02;;;16.60;99.90;;;;;;6241873;23;20070;-71
2023/05/23 00:43:23;;;;;;;11.02;8.77;;;16.60;99.90;;;;;;6240803;23;20008;-71
2023/05/23 00:45:48;;;;;;;16.42;11.98;;;16.60;99.90;;;;;;6241721;23;20000;-71
2023/05/23 00:48:15;;;;;;;14.57;9.98;;;16.50;99.90;;;;;;6241247;23;20410;-71
2023/05/23 00:50:41;;;;;;;16.20;11.85;;;16.40;99.90;;;;;;6242033;23;20008;-72
2023/05/23 00:53:07;;;;;;;22.63;11.60;;;16.40;99.90;;;;;;6243708;23;20000;-72
2023/05/23 00:55:33;;;;;;;14.68;11.98;;;16.40;99.90;;;;;;6243474;23;20030;-71
2023/05/23 00:57:59;;;;;;;15.02;11.05;;;16.30;99.90;;;;;;6243432;23;20051;-72
2023/05/23 01:00:25;;;;;;;17.25;10.30;;;16.30;99.90;;;;;;6216392;23;20493;-71
2023/05/23 01:02:52;;;;;;;16.58;11.60;;;16.30;99.90;;;;;;6243611;23;20071;-71
2023/05/23 01:05:21;;;;;;;15.15;11.65;;;16.30;99.90;;;;;;6243396;23;20007;-71
2023/05/23 01:07:47;;;;;;;17.92;11.65;;;16.20;99.90;;;;;;6216921;23;20092;-71
2023/05/23 01:10:15;;;;;;;15.23;12.00;;;16.20;99.90;;;;;;6243087;23;20036;-71
2023/05/23 01:13:06;;;;;;;16.35;10.85;;;16.10;99.90;;;;;;6242992;23;20074;-71
2023/05/23 01:15:41;;;;;;;16.00;11.15;;;16.10;99.90;;;;;;6172501;23;20032;-71
2023/05/23 01:18:13;;;;;;;15.10;10.85;;;16.00;99.90;;;;;;6243049;23;19996;-71
2023/05/23 01:21:16;;;;;;;13.60;9.02;;;16.00;99.90;;;;;;6243175;23;20028;-71
2023/05/23 01:24:03;;;;;;;15.70;10.63;;;16.00;99.90;;;;;;6216653;23;20008;-71
2023/05/23 01:26:48;;;;;;;13.43;10.20;;;15.90;99.90;;;;;;6215589;23;20690;-71
2023/05/23 01:29:37;;;;;;;13.88;10.20;;;15.90;99.90;;;;;;6243416;23;20488;-71
2023/05/23 01:32:06;;;;;;;11.57;8.70;;;15.90;99.90;;;;;;6242599;23;20187;-71
2023/05/23 01:34:34;;;;;;;14.32;9.18;;;15.90;99.90;;;;;;6243379;23;20026;-71
2023/05/23 01:36:59;;;;;;;16.38;10.43;;;15.90;99.90;;;;;;6243496;23;20004;-71
2023/05/23 01:39:25;;;;;;;14.93;10.13;;;15.90;99.90;;;;;;6243240;23;20094;-71
2023/05/23 01:41:52;;;;;;;14.43;9.27;;;15.80;99.90;;;;;;6243096;23;20291;-72
2023/05/23 01:44:18;;;;;;;14.30;9.43;;;15.80;99.90;;;;;;6216344;23;20000;-72
2023/05/23 01:46:45;;;;;;;15.23;9.68;;;15.80;99.90;;;;;;6243370;23;20000;-72
2023/05/23 01:49:13;;;;;;;11.85;9.77;;;15.80;99.90;;;;;;6243193;23;20003;-72
2023/05/23 01:51:39;;;;;;;16.35;10.52;;;15.80;99.90;;;;;;6243233;23;20012;-72
2023/05/23 01:54:05;;;;;;;13.15;10.02;;;15.80;99.90;;;;;;6243112;23;20073;-71
2023/05/23 01:56:32;;;;;;;12.02;8.90;;;15.80;99.90;;;;;;6215520;23;20055;-72
2023/05/23 01:58:57;;;;;;;11.32;9.05;;;15.80;99.90;;;;;;6243372;23;20000;-71
2023/05/23 02:01:23;;;;;;;15.55;10.00;;;15.80;99.90;;;;;;6242665;23;20019;-72
2023/05/23 02:03:48;;;;;;;13.52;9.25;;;15.80;99.90;;;;;;6242625;23;20008;-72
2023/05/23 02:06:14;;;;;;;15.23;10.00;;;15.80;99.90;;;;;;6242817;23;20007;-71
2023/05/23 02:08:40;;;;;;;13.25;9.73;;;15.80;99.90;;;;;;6243159;23;20007;-71
2023/05/23 02:11:07;;;;;;;13.50;9.60;;;15.80;99.90;;;;;;6242289;23;20431;-71
2023/05/23 02:13:33;;;;;;;14.73;10.60;;;15.80;99.90;;;;;;6242948;23;20000;-72
2023/05/23 02:15:59;;;;;;;14.68;10.27;;;15.70;99.90;;;;;;6242977;23;20004;-71
2023/05/23 02:18:25;;;;;;;14.55;10.10;;;15.70;99.90;;;;;;6215865;23;20308;-71
2023/05/23 02:20:50;;;;;;;12.85;10.07;;;15.70;99.90;;;;;;6242977;23;20000;-71
2023/05/23 02:23:16;;;;;;;13.73;10.23;;;15.70;99.90;;;;;;6242618;23;20080;-72
2023/05/23 02:25:42;;;;;;;11.38;8.20;;;15.60;99.90;;;;;;6214025;23;20028;-71
2023/05/23 02:28:07;;;;;;;12.38;10.60;;;15.70;99.90;;;;;;6241571;23;19996;-71
2023/05/23 02:30:33;;;;;;;16.08;9.18;;;15.60;99.90;;;;;;6241551;23;20078;-71
2023/05/23 02:32:58;;;;;;;19.40;10.63;;;15.60;99.90;;;;;;6240817;23;20004;-71
2023/05/23 02:35:24;;;;;;;15.23;10.38;;;15.60;99.90;;;;;;6241036;23;20015;-71
2023/05/23 02:37:49;;;;;;;15.90;10.73;;;15.60;99.90;;;;;;6242630;23;20325;-71
2023/05/23 02:40:15;;;;;;;15.77;10.18;;;15.60;99.90;;;;;;6241733;23;20004;-71
2023/05/23 02:42:41;;;;;;;13.63;9.30;;;15.60;99.90;;;;;;6242659;23;20008;-71
2023/05/23 02:45:07;;;;;;;14.40;10.38;;;15.60;99.90;;;;;;6215596;23;20043;-71
2023/05/23 02:47:32;;;;;;;14.50;10.65;;;15.60;99.90;;;;;;6242572;23;20095;-71
2023/05/23 02:49:58;;;;;;;11.60;10.05;;;15.60;99.90;;;;;;6242607;23;20109;-71
2023/05/23 02:52:24;;;;;;;15.73;9.73;;;15.60;99.90;;;;;;6242313;23;20303;-71
2023/05/23 02:54:50;;;;;;;18.52;11.30;;;15.60;99.90;;;;;;6242017;23;20073;-71
2023/05/23 02:57:15;;;;;;;18.05;11.13;;;15.60;99.90;;;;;;6242325;23;20142;-71
2023/05/23 02:59:41;;;;;;;14.77;10.88;;;15.50;99.90;;;;;;6242549;23;20445;-71
2023/05/23 03:02:07;;;;;;;19.35;11.63;;;15.50;99.90;;;;;;6242532;23;20027;-71
2023/05/23 03:04:32;;;;;;;18.13;11.50;;;15.50;99.90;;;;;;6242502;23;20079;-71
2023/05/23 03:06:58;;;;;;;15.80;11.23;;;15.50;99.90;;;;;;6242416;23;20414;-71
2023/05/23 03:09:23;;;;;;;19.08;10.73;;;15.50;99.90;;;;;;6241391;23;20071;-71
2023/05/23 03:11:50;;;;;;;22.45;10.98;;;15.50;99.90;;;;;;6242442;23;19996;-71
2023/05/23 03:14:15;;;;;;;17.98;10.05;;;15.50;99.90;;;;;;6242032;23;20000;-71
2023/05/23 03:16:41;;;;;;;15.10;8.73;;;15.50;99.90;;;;;;6242725;23;20445;-71
2023/05/23 03:19:06;;;;;;;14.70;10.07;;;15.50;99.90;;;;;;6242183;23;20004;-72
2023/05/23 03:21:33;;;;;;;16.48;9.63;;;15.50;99.90;;;;;;6215254;23;20035;-71
2023/05/23 03:23:59;;;;;;;14.52;10.00;;;15.40;99.90;;;;;;6214550;23;20011;-71
2023/05/23 03:26:25;;;;;;;14.07;9.25;;;15.50;99.90;;;;;;6241879;23;20012;-71
2023/05/23 03:28:51;;;;;;;12.27;8.77;;;15.40;99.90;;;;;;6242433;23;19996;-72
2023/05/23 03:31:16;;;;;;;12.90;7.22;;;15.40;99.90;;;;;;6242047;23;20007;-71
2023/05/23 03:33:42;;;;;;;11.52;7.57;;;15.40;99.90;;;;;;6242435;23;20008;-71
2023/05/23 03:36:07;;;;;;;12.07;8.07;;;15.40;99.90;;;;;;6241493;23;20023;-71
2023/05/23 03:38:33;;;;;;;11.25;8.30;;;15.40;99.90;;;;;;6241960;23;20018;-71
2023/05/23 03:40:59;;;;;;;12.82;8.68;;;15.40;99.90;;;;;;6242256;23;20054;-72
2023/05/23 03:43:24;;;;;;;12.23;7.72;;;15.40;99.90;;;;;;6241810;23;20011;-72
2023/05/23 03:45:50;;;;;;;11.68;8.32;;;15.40;99.90;;;;;;6242261;23;20437;-71
2023/05/23 03:48:15;;;;;;;12.50;7.10;;;15.40;99.90;;;;;;6241869;23;20037;-71
2023/05/23 03:50:41;;;;;;;9.38;8.23;;;15.40;99.90;;;;;;6241709;23;20001;-71
2023/05/23 03:53:07;;;;;;;12.35;8.05;;;15.50;99.90;;;;;;6241742;23;20071;-71
2023/05/23 03:55:33;;;;;;;9.60;8.00;;;15.50;99.90;;;;;;6241805;23;20492;-71
2023/05/23 03:57:59;;;;;;;11.90;7.97;;;15.50;99.90;;;;;;6242157;23;19996;-71
2023/05/23 04:00:25;;;;;;;12.57;7.72;;;15.50;99.90;;;;;;6241816;23;20011;-71
2023/05/23 04:02:50;;;;;;;10.63;8.90;;;15.50;99.90;;;;;;6241988;23;20067;-72
2023/05/23 04:05:16;;;;;;;14.82;8.63;;;15.50;99.90;;;;;;6241151;23;20000;-72
2023/05/23 04:07:42;;;;;;;13.00;8.75;;;15.60;99.90;;;;;;6242026;23;20103;-72
2023/05/23 04:10:09;;;;;;;11.18;7.47;;;15.50;99.90;;;;;;6241858;23;20031;-72
2023/05/23 04:12:35;;;;;;;13.20;8.25;;;15.50;99.90;;;;;;6241674;23;20004;-71
2023/05/23 04:15:01;;;;;;;12.10;8.63;;;15.60;99.90;;;;;;6242066;23;20031;-71
2023/05/23 04:17:28;;;;;;;13.88;8.32;;;15.60;99.90;;;;;;6241707;23;20000;-71
2023/05/23 04:19:54;;;;;;;11.00;6.63;;;15.60;99.90;;;;;;6241332;23;20087;-71
2023/05/23 04:22:19;;;;;;;13.07;8.32;;;15.70;99.90;;;;;;6241556;23;20443;-71
2023/05/23 04:24:45;;;;;;;10.85;8.40;;;15.70;99.90;;;;;;6241582;23;20070;-71
2023/05/23 04:27:12;;;;;;;18.02;9.73;;;15.70;99.90;;;;;;6240930;23;20043;-71
2023/05/23 04:29:38;;;;;;;19.98;9.35;;;15.70;99.90;;;;;;6241920;23;20000;-71
2023/05/23 04:32:05;;;;;;;16.80;9.40;;;15.70;99.90;;;;;;6241537;23;20311;-71
2023/05/23 04:34:32;;;;;;;17.33;11.15;;;15.60;99.90;;;;;;6240989;23;20507;-71
2023/05/23 04:37:01;;;;;;;13.23;8.73;;;15.60;99.90;;;;;;6241805;23;20387;-71
2023/05/23 04:39:28;;;;;;;15.52;9.68;;;15.60;99.90;;;;;;6241309;23;20075;-71
2023/05/23 04:41:55;;;;;;;21.48;10.43;;;15.60;99.90;;;;;;6241655;23;20004;-71
2023/05/23 04:44:21;;;;;;;17.95;8.90;;;15.60;99.90;;;;;;6241418;23;20000;-71
2023/05/23 04:46:46;;;;;;;18.38;9.35;;;15.50;99.90;;;;;;6241474;23;20074;-71
2023/05/23 04:49:13;;;;;;;15.68;8.82;;;15.50;99.90;;;;;;6240774;23;20004;-71
2023/05/23 04:51:38;;;;;;;14.45;9.32;;;15.60;99.90;;;;;;6241605;23;20035;-71
2023/05/23 04:54:04;;;;;;;20.02;10.23;;;15.50;99.90;;;;;;6241583;23;20004;-71
2023/05/23 04:56:30;;;;;;;15.63;9.23;;;15.50;99.90;;;;;;6241372;23;20078;-71
2023/05/23 04:58:56;;;;;;;20.98;11.13;;;15.50;99.90;;;;;;6241707;23;20325;-71
2023/05/23 05:01:24;;;;;;;22.83;10.38;;;15.50;99.90;;;;;;6241389;23;20008;-71
2023/05/23 05:03:51;;;;;;;19.38;10.85;;;15.50;99.90;;;;;;6241139;23;20011;-71
2023/05/23 05:06:17;;;;;;;22.30;9.88;;;15.40;99.90;;;;;;6241236;23;20464;-71
2023/05/23 05:08:43;;;;;;;26.15;12.52;;;15.40;99.90;;;;;;6241797;23;20004;-71
2023/05/23 05:11:09;;;;;;;24.10;11.70;;;15.30;99.90;;;;;;6214323;23;20087;-72
2023/05/23 05:13:35;;;;;;;20.85;10.38;;;15.30;99.90;;;;;;6189432;23;20015;-71
2023/05/23 05:16:01;;;;;;;22.63;10.57;;;15.30;99.90;;;;;;6241599;23;19996;-71
2023/05/23 05:18:27;;;;;;;15.25;9.25;;;15.20;99.90;;;;;;6240602;23;20008;-71
2023/05/23 05:20:53;;;;;;;13.77;8.32;;;15.20;99.90;;;;;;6241466;23;20012;-71
2023/05/23 05:23:19;;;;;;;16.15;8.48;;;15.10;99.90;;;;;;6241173;23;20521;-72
2023/05/23 05:25:45;;;;;;;18.38;8.15;;;15.10;99.90;;;;;;6241109;23;20081;-71
2023/05/23 05:28:10;;;;;;;14.60;7.32;;;15.00;99.90;;;;;;6241300;23;20004;-71
2023/05/23 05:30:36;;;;;;;13.90;8.30;;;15.00;99.90;;;;;;6240303;23;20011;-71
2023/05/23 05:33:03;;;;;;;22.05;8.07;;;14.90;99.90;;;;;;6213612;23;20390;-72
2023/05/23 05:35:37;;;;;;;16.90;7.57;;;14.90;99.90;;;;;;6240875;23;20068;-71
2023/05/23 05:38:03;;;;;;;14.57;7.38;;;14.90;99.90;;;;;;6215880;23;20082;-71
2023/05/23 05:40:32;;;;;;;14.52;6.25;;;14.80;99.90;;;;;;6241563;23;20011;-72
2023/05/23 05:42:57;;;;;;;14.82;6.78;;;14.80;99.90;;;;;;6243363;23;20058;-71
2023/05/23 05:45:23;;;;;;;10.13;6.18;;;14.80;99.90;;;;;;6242865;23;20964;-71
2023/05/23 05:47:48;;;;;;;14.98;6.30;;;14.80;99.90;;;;;;6242870;23;20007;-71
2023/05/23 05:50:14;;;;;;;11.50;5.85;;;14.70;99.90;;;;;;6242797;23;20012;-70
2023/05/23 05:52:41;;;;;;;16.40;7.05;;;14.70;99.90;;;;;;6243424;23;20004;-71
2023/05/23 05:55:10;;;;;;;17.17;7.22;;;14.70;99.90;;;;;;6243096;23;20051;-71
2023/05/23 05:57:37;;;;;;;10.63;6.63;;;14.70;99.90;;;;;;6216208;23;20001;-71
2023/05/23 06:00:11;;;;;;;17.95;7.15;;;14.70;99.90;;;;;;6243162;23;20008;-71
2023/05/23 06:02:37;;;;;;;15.80;6.70;;;14.70;99.90;;;;;;6242735;23;20004;-70
2023/05/23 06:05:03;;;;;;;14.50;6.22;;;14.70;99.90;;;;;;6243161;23;20065;-73
2023/05/23 06:07:29;;;;;;;11.95;6.53;;;14.60;99.90;;;;;;6243382;23;20027;-72
2023/05/23 06:09:54;;;;;;;15.27;6.40;;;14.60;99.90;;;;;;6243288;23;20483;-73
2023/05/23 06:12:20;;;;;;;18.52;6.97;;;14.60;99.90;;;;;;6243222;23;20059;-73
2023/05/23 06:14:46;;;;;;;12.52;6.45;;;14.60;99.90;;;;;;6243277;23;20023;-72
2023/05/23 06:17:11;;;;;;;13.23;6.50;;;14.60;99.90;;;;;;6241668;23;20000;-73
2023/05/23 06:19:37;;;;;;;11.80;5.00;;;14.50;99.90;;;;;;6243012;23;20007;-72
2023/05/23 06:22:03;;;;;;;12.50;5.15;;;14.50;99.90;;;;;;6243116;23;20066;-73
2023/05/23 06:24:28;;;;;;;11.82;5.57;;;14.50;99.90;;;;;;6242755;23;19999;-73
2023/05/23 06:26:54;;;;;;;16.40;5.85;;;14.50;99.90;;;;;;6242877;23;20384;-73
2023/05/23 06:29:19;;;;;;;11.20;5.30;;;14.40;99.90;;;;;;6242954;23;20079;-73
2023/05/23 06:31:45;;;;;;;13.73;5.80;;;14.40;99.90;;;;;;6242483;23;20000;-73
2023/05/23 06:34:10;;;;;;;12.73;5.45;;;14.40;99.90;;;;;;6242930;23;20007;-73
2023/05/23 06:36:36;;;;;;;13.75;5.10;;;14.40;99.90;;;;;;6244598;23;20000;-73
2023/05/23 06:39:01;;;;;;;18.00;6.65;;;14.40;99.90;;;;;;6243663;23;20438;-73
2023/05/23 06:41:27;;;;;;;12.68;5.72;;;14.50;99.90;;;;;;6244265;23;20084;-72
2023/05/23 06:43:53;;;;;;;8.43;4.95;;;14.50;99.90;;;;;;6244773;23;20333;-73
2023/05/23 06:46:18;;;;;;;13.10;6.28;;;14.50;99.90;;;;;;6242845;23;20426;-73
2023/05/23 06:48:44;;;;;;;16.65;6.03;;;14.60;99.90;;;;;;6242510;23;20011;-72
2023/05/23 06:51:10;;;;;;;12.98;5.68;;;14.60;99.90;;;;;;6216009;23;20023;-72
2023/05/23 06:53:35;;;;;;;11.55;5.15;;;14.70;99.90;;;;;;6242712;23;20004;-73
2023/05/23 06:56:01;;;;;;;11.10;5.45;;;14.70;99.90;;;;;;6243877;23;20000;-73
2023/05/23 06:58:27;;;;;;;11.45;5.32;;;14.80;99.90;;;;;;6243575;23;20004;-73
2023/05/23 07:00:52;;;;;;;12.07;5.97;;;14.80;99.90;;;;;;6242533;23;20083;-72
2023/05/23 07:03:18;;;;;;;11.57;4.90;;;14.90;99.90;;;;;;6237333;23;20058;-73
2023/05/23 07:05:43;;;;;;;11.25;5.43;;;15.00;99.90;;;;;;6241691;23;20430;-73
2023/05/23 07:08:09;;;;;;;11.13;5.75;;;15.00;99.90;;;;;;6242239;23;20099;-73
2023/05/23 07:10:35;;;;;;;9.40;5.60;;;15.10;99.90;;;;;;6241577;23;20334;-72
2023/05/23 07:13:01;;;;;;;10.65;5.10;;;15.20;99.90;;;;;;6242200;23;20000;-73
2023/05/23 07:15:26;;;;;;;11.57;6.18;;;15.20;99.90;;;;;;6239660;23;20015;-73
2023/05/23 07:17:52;;;;;;;12.32;5.22;;;15.30;99.90;;;;;;6242380;23;20207;-72
2023/05/23 07:20:17;;;;;;;11.25;5.57;;;15.40;99.90;;;;;;6241774;23;20429;-73
2023/05/23 07:22:44;;;;;;;15.57;5.78;;;15.50;99.90;;;;;;6242425;23;20004;-73
2023/05/23 07:25:09;;;;;;;10.38;5.88;;;15.50;99.90;;;;;;6240668;23;20004;-72
2023/05/23 07:27:35;;;;;;;7.97;4.78;;;15.60;99.90;;;;;;6214871;23;20030;-72
2023/05/23 07:30:01;;;;;;;10.35;4.93;;;15.60;99.60;;;;;;6241210;23;20079;-73
2023/05/23 07:32:27;;;;;;;9.20;5.90;;;15.60;99.40;;;;;;6241191;23;20004;-72
2023/05/23 07:34:52;;;;;;;11.65;5.60;;;15.60;99.40;;;;;;6240477;23;20014;-73
2023/05/23 07:37:18;;;;;;;7.82;4.57;;;15.60;99.20;;;;;;6240234;23;20084;-73
2023/05/23 07:39:43;;;;;;;11.80;5.90;;;15.50;99.10;;;;;;6241803;23;20055;-73
2023/05/23 07:42:09;;;;;;;9.68;5.25;;;15.50;99.20;;;;;;6242504;23;20008;-73
2023/05/23 07:44:35;;;;;;;10.48;5.32;;;15.50;99.30;;;;;;6215048;23;20078;-73
2023/05/23 07:47:00;;;;;;;13.13;5.65;;;15.60;99.20;;;;;;6240999;23;20050;-73
2023/05/23 07:49:26;;;;;;;9.80;5.07;;;15.70;98.70;;;;;;6215207;23;20065;-74
2023/05/23 07:51:51;;;;;;;10.73;5.72;;;15.70;98.70;;;;;;6241911;23;20087;-73
2023/05/23 07:54:17;;;;;;;10.35;5.38;;;15.80;98.60;;;;;;6241582;23;20028;-73
2023/05/23 07:56:43;;;;;;;9.68;5.35;;;15.80;98.60;;;;;;6213913;23;20015;-72
2023/05/23 07:59:08;;;;;;;8.85;4.60;;;15.80;98.60;;;;;;6240880;23;20007;-72
2023/05/23 08:01:35;;;;;;;13.48;4.35;;;15.80;98.50;;;;;;6241086;23;20429;-72
2023/05/23 08:04:01;;;;;;;9.82;5.20;;;15.80;98.50;;;;;;6241215;23;20406;-73
2023/05/23 08:06:28;;;;;;;13.77;5.55;;;15.70;98.50;;;;;;6241092;23;20007;-73
2023/05/23 08:08:53;;;;;;;9.73;4.55;;;15.70;98.70;;;;;;6213195;23;20012;-73
2023/05/23 08:11:19;;;;;;;12.68;4.43;;;15.60;98.70;;;;;;6240730;23;20066;-73
2023/05/23 08:13:45;;;;;;;8.65;5.13;;;15.60;98.90;;;;;;6240859;23;20446;-74
2023/05/23 08:16:10;;;;;;;11.43;4.30;;;15.60;99.10;;;;;;6240605;23;20077;-73
2023/05/23 08:18:36;;;;;;;11.32;5.57;;;15.60;99.20;;;;;;6240673;23;20008;-73
2023/05/23 08:21:02;;;;;;;9.82;5.40;;;15.70;99.30;;;;;;6240666;23;20365;-73
2023/05/23 08:23:27;;;;;;;12.35;4.93;;;15.70;99.30;;;;;;6241563;23;20028;-73
2023/05/23 08:25:53;;;;;;;14.48;4.82;;;15.80;99.00;;;;;;6241193;23;20015;-73
2023/05/23 08:28:19;;;;;;;12.20;3.45;;;15.80;99.00;;;;;;6240258;23;20007;-73
2023/05/23 08:30:45;;;;;;;9.70;3.47;;;15.80;98.80;;;;;;6240538;23;20062;-73
2023/05/23 08:33:11;;;;;;;8.27;2.90;;;15.90;98.70;;;;;;6240871;23;20070;-73
2023/05/23 08:35:37;;;;;;;9.07;2.88;;;15.90;98.60;;;;;;6241663;23;20004;-73
2023/05/23 08:38:06;;;;;;;13.80;3.67;;;15.90;98.50;;;;;;6241715;23;19996;-73
2023/05/23 08:40:33;;;;;;;10.90;3.28;;;15.90;98.30;;;;;;6239804;23;20000;-73
2023/05/23 08:42:58;;;;;;;11.18;2.95;;;15.90;98.20;;;;;;6241478;23;20387;-73
2023/05/23 08:45:24;;;;;;;9.25;3.05;;;15.80;98.00;;;;;;6241620;23;20007;-73
2023/05/23 08:47:51;;;;;;;13.20;3.17;;;15.90;98.10;;;;;;6241660;23;20119;-73
2023/05/23 08:50:17;;;;;;;9.98;2.72;;;16.00;97.60;;;;;;6240889;23;20425;-73
2023/05/23 08:52:50;;;;;;;10.27;2.97;;;16.10;97.50;;;;;;6214085;23;20003;-73
2023/05/23 08:55:16;;;;;;;10.45;2.75;;;16.20;96.80;;;;;;6240714;23;19996;-74
2023/05/23 08:57:44;;;;;;;5.95;2.58;;;16.20;96.20;;;;;;6241616;23;20067;-73
2023/05/23 09:00:13;;;;;;;11.35;2.72;;;16.20;96.00;;;;;;6241326;23;20001;-73
2023/05/23 09:02:42;;;;;;;11.60;2.72;;;16.20;95.90;;;;;;6240715;23;20035;-73
2023/05/23 09:05:11;;;;;;;13.05;3.30;;;16.20;95.80;;;;;;6241452;23;20000;-73
2023/05/23 09:07:37;;;;;;;10.65;3.03;;;16.20;95.00;;;;;;6241724;23;19996;-71
2023/05/23 09:10:08;;;;;;;9.52;2.88;;;16.20;94.50;;;;;;6240842;23;20031;-71
2023/05/23 09:12:35;;;;;;;11.32;2.83;;;16.30;94.30;;;;;;6241224;23;20413;-72
2023/05/23 09:15:02;;;;;;;7.63;2.85;;;16.30;94.10;;;;;;6243939;23;20019;-72
2023/05/23 09:17:28;;;;;;;8.82;3.03;;;16.30;93.80;;;;;;6243253;23;19992;-71
2023/05/23 09:19:53;;;;;;;6.45;2.58;;;16.30;93.40;;;;;;6243313;23;20085;-71
2023/05/23 09:22:24;;;;;;;12.70;2.72;;;16.40;93.30;;;;;;6242290;23;19997;-72
2023/05/23 09:24:51;;;;;;;8.27;2.80;;;16.60;93.30;;;;;;6241632;23;20003;-72
2023/05/23 09:27:17;;;;;;;10.57;2.45;;;16.70;93.00;;;;;;6242781;23;20039;-71
2023/05/23 09:29:43;;;;;;;7.50;2.58;;;16.80;92.80;;;;;;6243651;23;20008;-71
2023/05/23 09:32:19;;;;;;;13.55;2.75;;;16.70;92.70;;;;;;6243133;23;20015;-72
2023/05/23 09:35:01;;;;;;;11.68;4.00;;;16.70;91.90;;;;;;6242386;23;20004;-72
2023/05/23 09:37:34;;;;;;;15.52;3.38;;;16.70;91.30;;;;;;6242894;23;20129;-72
2023/05/23 09:40:14;;;;;;;7.88;1.77;;;16.70;91.30;;;;;;6243132;23;20046;-71
2023/05/23 09:42:47;;;;;;;12.23;2.75;;;16.70;91.20;;;;;;6243667;23;20019;-72
2023/05/23 09:45:14;;;;;;;13.90;2.90;;;16.70;91.10;;;;;;6241724;23;20058;-71
2023/05/23 09:47:51;;;;;;;8.75;2.15;;;16.60;91.00;;;;;;6243569;23;20042;-71
2023/05/23 09:50:17;;;;;;;9.20;2.88;;;16.60;91.00;;;;;;6243040;23;19999;-71
2023/05/23 09:52:43;;;;;;;6.30;2.88;;;16.70;91.20;;;;;;6243809;23;20015;-71
2023/05/23 09:55:09;;;;;;;9.73;2.88;;;16.70;90.60;;;;;;6241409;23;20203;-71
2023/05/23 09:57:39;;;;;;;8.07;3.00;;;16.80;90.20;;;;;;6242995;23;20114;-72
2023/05/23 10:00:09;;;;;;;11.23;3.15;;;16.80;89.60;;;;;;6242428;23;20000;-71
2023/05/23 10:02:59;;;;;;;11.35;3.15;;;16.90;89.40;;;;;;6242821;23;19996;-71
2023/05/23 10:05:35;;;;;;;7.40;2.72;;;17.10;88.60;;;;;;6241817;23;20382;-72
2023/05/23 10:08:06;;;;;;;9.25;3.03;;;17.20;88.20;;;;;;6243430;23;20318;-71
2023/05/23 10:10:32;;;;;;;7.55;2.97;;;17.30;88.20;;;;;;6243549;23;20004;-71
2023/05/23 10:13:03;;;;;;;11.95;3.88;;;17.40;88.00;;;;;;6243281;23;20488;-71
2023/05/23 10:15:33;;;;;;;11.23;3.35;;;17.40;87.20;;;;;;6215832;23;20103;-73
2023/05/23 10:18:11;;;;;;;8.73;2.63;;;17.30;87.60;;;;;;6241467;23;20054;-71
2023/05/23 10:20:40;;;;;;;7.55;2.35;;;17.30;87.70;;;;;;6243254;23;20005;-71
2023/05/23 10:23:06;;;;;;;13.85;3.88;;;17.10;86.90;;;;;;6216854;23;20009;-71
2023/05/23 10:25:34;;;;;;;11.13;3.15;;;17.10;86.70;;;;;;6244354;23;20433;-71
2023/05/23 10:28:00;;;;;;;14.18;3.85;;;17.20;87.10;;;;;;6242144;23;20079;-72
2023/05/23 10:30:27;;;;;;;14.77;3.15;;;17.40;86.70;;;;;;6215707;23;20004;-72
2023/05/23 10:32:55;;;;;;;8.15;2.55;;;17.60;86.00;;;;;;6242769;23;20076;-72
2023/05/23 10:35:52;;;;;;;8.85;2.72;;;17.80;85.60;;;;;;6242427;23;19996;-72
2023/05/23 10:38:23;;;;;;;6.95;2.63;;;17.90;84.30;;;;;;6241173;23;20000;-71
2023/05/23 10:41:02;;;;;;;12.52;3.25;;;18.10;82.60;;;;;;6242384;23;20433;-71
2023/05/23 10:43:50;;;;;;;8.00;3.10;;;18.20;82.40;;;;;;6242632;23;20007;-72
2023/05/23 10:46:20;;;;;;;13.52;3.80;;;18.30;82.60;;;;;;6242748;23;20049;-72
2023/05/23 10:48:46;;;;;;;10.35;3.53;;;18.20;82.30;;;;;;6243320;23;20314;-72
2023/05/23 10:51:14;;;;;;;9.15;3.22;;;18.20;81.60;;;;;;6240652;23;20000;-72
2023/05/23 10:53:41;;;;;;;10.52;2.85;;;18.00;80.70;;;;;;6242839;23;20091;-72
2023/05/23 10:56:20;;;;;;;8.43;2.28;;;17.90;80.30;;;;;;6242535;23;19996;-72
2023/05/23 10:58:51;;;;;;;11.60;3.08;;;17.80;80.70;;;;;;6214882;23;20087;-71
2023/05/23 11:01:18;;;;;;;7.38;3.30;;;17.70;80.10;;;;;;6213945;23;20443;-72
2023/05/23 11:03:47;;;;;;;10.27;3.30;;;17.80;79.70;;;;;;6242611;23;20008;-72
2023/05/23 11:06:32;;;;;;;8.30;3.05;;;17.90;79.60;;;;;;6240188;23;20004;-72
2023/05/23 11:09:18;;;;;;;15.00;3.33;;;18.10;80.30;;;;;;6242328;23;20000;-72
2023/05/23 11:11:52;;;;;;;6.93;2.92;;;18.20;79.90;;;;;;6241203;23;20061;-72
2023/05/23 11:14:20;;;;;;;7.57;3.08;;;18.20;78.90;;;;;;6215053;23;19996;-72
2023/05/23 11:16:47;;;;;;;8.05;2.40;;;18.10;78.40;;;;;;6242732;23;19996;-72
2023/05/23 11:19:24;;;;;;;11.43;3.53;;;18.20;78.00;;;;;;6241930;23;20000;-71
2023/05/23 11:22:00;;;;;;;9.80;2.83;;;18.40;77.40;;;;;;6240381;23;20031;-72
2023/05/23 11:24:55;;;;;;;8.95;2.65;;;18.50;77.20;;;;;;6241828;23;20010;-73
2023/05/23 11:27:33;;;;;;;12.48;3.35;;;18.60;77.40;;;;;;6241614;23;20019;-72
2023/05/23 11:30:16;;;;;;;8.07;3.20;;;18.50;77.90;;;;;;6241776;23;19992;-72
2023/05/23 11:32:53;;;;;;;5.10;2.33;;;18.50;77.60;;;;;;6213681;23;20077;-72
2023/05/23 11:35:20;;;;;;;11.20;3.00;;;18.40;77.00;;;;;;6214280;23;20008;-72
2023/05/23 11:37:46;;;;;;;9.07;2.25;;;18.40;77.50;;;;;;6242236;23;19996;-72
2023/05/23 11:40:25;;;;;;;7.28;2.25;;;18.50;76.80;;;;;;6241594;23;20015;-72
2023/05/23 11:42:50;;;;;;;13.63;3.38;;;18.60;76.60;;;;;;6241759;23;20030;-72
2023/05/23 11:45:19;;;;;;;10.73;2.95;;;18.40;76.30;;;;;;6239594;23;20004;-72
2023/05/23 11:47:44;;;;;;;8.13;2.65;;;18.30;76.70;;;;;;6241802;23;20031;-72
2023/05/23 11:50:10;;;;;;;8.02;2.53;;;18.30;76.90;;;;;;6240818;23;20008;-72
2023/05/23 11:52:36;;;;;;;8.75;2.28;;;18.30;76.10;;;;;;6242350;23;20353;-72
2023/05/23 11:55:01;;;;;;;9.60;3.28;;;18.40;75.40;;;;;;6239205;23;20000;-71
2023/05/23 11:57:27;;;;;;;12.80;2.67;;;18.40;75.10;;;;;;6240613;23;20190;-71
2023/05/23 11:59:53;;;;;;;12.38;3.05;;;18.50;75.80;;;;;;6213627;23;20016;-71
2023/05/23 12:02:21;;;;;;;13.10;3.33;;;18.60;76.80;;;;;;6241594;23;20058;-72
2023/05/23 12:04:47;;;;;;;10.02;2.50;;;18.70;77.00;;;;;;6240254;23;20352;-72
2023/05/23 12:07:13;;;;;;;15.30;3.63;;;18.80;76.80;;;;;;6239609;23;20426;-72
2023/05/23 12:09:45;;;;;;;10.52;2.17;;;18.80;75.70;;;;;;6240242;23;20000;-71
2023/05/23 12:12:12;;;;;;;8.05;2.63;;;18.70;75.10;;;;;;6240859;23;20011;-72
2023/05/23 12:14:43;;;;;;;6.90;2.95;;;18.70;74.30;;;;;;6240675;23;20420;-72
2023/05/23 12:17:12;;;;;;;9.05;3.15;;;18.70;74.30;;;;;;6239858;23;20422;-71
2023/05/23 12:19:38;;;;;;;10.43;2.47;;;18.70;75.00;;;;;;6241294;23;19996;-72
2023/05/23 12:22:09;;;;;;;8.52;2.58;;;18.60;75.20;;;;;;6241989;23;20004;-72
2023/05/23 12:24:48;;;;;;;9.88;2.30;;;18.60;75.70;;;;;;6241055;23;20059;-72
2023/05/23 12:27:16;;;;;;;7.25;2.13;;;18.60;74.50;;;;;;6240662;23;20095;-72
2023/05/23 12:29:48;;;;;;;7.78;2.10;;;18.60;73.80;;;;;;6240595;23;20125;-72
2023/05/23 12:32:14;;;;;;;9.13;2.40;;;18.70;73.30;;;;;;6240948;23;20008;-72
2023/05/23 12:34:41;;;;;;;7.72;2.30;;;18.60;71.20;;;;;;6240645;23;20326;-72
2023/05/23 12:37:07;;;;;;;7.53;2.35;;;18.40;72.30;;;;;;6241394;23;20010;-71
2023/05/23 12:39:35;;;;;;;7.53;2.38;;;18.30;73.40;;;;;;6240029;23;20075;-72
2023/05/23 12:42:08;;;;;;;9.07;2.58;;;18.30;73.30;;;;;;6241429;23;20022;-72